createdAt,value
2022-08-18T00:01:50.502Z,59.47
2022-08-18T00:04:35.049Z,69.07
2022-08-18T00:07:03.944Z,67.78
2022-08-18T00:09:32.726Z,62.17
2022-08-18T00:12:01.933Z,59.20
2022-08-18T00:14:28.493Z,58.35
2022-08-18T00:16:55.108Z,61.63
2022-08-18T00:19:45.546Z,43.33
2022-08-18T00:22:12.457Z,52.47
2022-08-18T00:24:47.634Z,58.17
2022-08-18T00:27:22.988Z,64.28
2022-08-18T00:29:50.222Z,57.58
2022-08-18T00:32:19.786Z,58.10
2022-08-18T00:34:46.434Z,72.22
2022-08-18T00:37:13.004Z,73.13
2022-08-18T00:39:43.475Z,82.38
2022-08-18T00:42:29.007Z,54.22
2022-08-18T00:45:00.013Z,67.00
2022-08-18T00:47:42.855Z,67.00
2022-08-18T00:50:51.659Z,71.80
2022-08-18T00:53:23.976Z,75.75
2022-08-18T00:55:54.475Z,74.22
2022-08-18T00:58:28.121Z,56.83
2022-08-18T01:00:55.058Z,48.60
2022-08-18T01:03:25.129Z,55.15
2022-08-18T01:05:59.247Z,60.55
2022-08-18T01:08:28.470Z,59.72
2022-08-18T01:10:56.499Z,63.58
2022-08-18T01:13:27.330Z,61.20
2022-08-18T01:15:53.888Z,55.92
2022-08-18T01:18:40.096Z,55.00
2022-08-18T01:21:43.936Z,53.20
2022-08-18T01:24:12.994Z,61.42
2022-08-18T01:26:50.083Z,65.03
2022-08-18T01:29:19.206Z,55.58
2022-08-18T01:31:55.439Z,59.22
2022-08-18T01:34:26.376Z,56.08
2022-08-18T01:36:55.005Z,55.80
2022-08-18T01:40:59.750Z,61.85
2022-08-18T01:42:09.079Z,64.18
2022-08-18T01:44:35.821Z,73.32
2022-08-18T01:47:02.470Z,85.47
2022-08-18T01:49:29.035Z,67.22
2022-08-18T01:51:55.775Z,61.90
2022-08-18T01:54:22.872Z,54.95
2022-08-18T01:56:49.546Z,57.50
2022-08-18T01:59:16.152Z,59.92
2022-08-18T02:01:49.547Z,69.05
2022-08-18T02:04:35.722Z,70.63
2022-08-18T02:07:07.349Z,66.05
2022-08-18T02:09:37.334Z,69.78
2022-08-18T02:12:05.839Z,58.63
2022-08-18T02:14:32.922Z,51.38
2022-08-18T02:17:02.418Z,48.78
2022-08-18T02:19:35.050Z,52.00
2022-08-18T02:22:02.318Z,61.15
2022-08-18T02:24:29.039Z,71.97
2022-08-18T02:26:55.645Z,68.90
2022-08-18T02:29:22.232Z,66.57
2022-08-18T02:31:48.867Z,69.85
2022-08-18T02:34:16.693Z,61.67
2022-08-18T02:36:43.290Z,52.40
2022-08-18T02:39:09.871Z,67.15
2022-08-18T02:41:36.932Z,65.55
2022-08-18T02:44:04.882Z,69.28
2022-08-18T02:46:31.607Z,64.85
2022-08-18T02:49:00.065Z,61.33
2022-08-18T02:51:26.784Z,57.28
2022-08-18T02:53:54.250Z,57.40
2022-08-18T02:56:41.484Z,67.70
2022-08-18T02:59:18.910Z,62.42
2022-08-18T03:01:53.507Z,60.75
2022-08-18T03:04:28.584Z,66.25
2022-08-18T03:06:58.334Z,62.72
2022-08-18T03:09:24.951Z,56.20
2022-08-18T03:11:52.845Z,55.63
2022-08-18T03:14:19.664Z,54.70
2022-08-18T03:16:53.703Z,68.05
2022-08-18T03:19:22.805Z,76.45
2022-08-18T03:21:49.392Z,63.63
2022-08-18T03:24:22.934Z,68.30
2022-08-18T03:26:51.589Z,76.25
2022-08-18T03:29:18.442Z,74.65
2022-08-18T03:31:45.508Z,62.97
2022-08-18T03:34:12.801Z,67.03
2022-08-18T03:36:39.836Z,67.07
2022-08-18T03:39:09.247Z,68.15
2022-08-18T03:41:58.901Z,61.80
2022-08-18T03:44:25.150Z,60.13
2022-08-18T03:46:51.834Z,62.20
2022-08-18T03:49:18.715Z,52.67
2022-08-18T03:51:49.191Z,52.75
2022-08-18T03:54:17.621Z,47.50
2022-08-18T03:56:46.269Z,52.38
2022-08-18T03:59:17.880Z,45.05
2022-08-18T04:01:45.883Z,42.22
2022-08-18T04:04:15.515Z,44.80
2022-08-18T04:06:45.436Z,42.55
2022-08-18T04:09:14.419Z,48.08
2022-08-18T04:11:43.386Z,49.90
2022-08-18T04:14:13.251Z,42.08
2022-08-18T04:16:40.800Z,46.38
2022-08-18T04:19:08.856Z,36.22
2022-08-18T04:21:37.626Z,44.22
2022-08-18T04:24:05.349Z,44.13
2022-08-18T04:26:34.317Z,40.28
2022-08-18T04:29:03.736Z,30.13
2022-08-18T04:31:31.101Z,26.83
2022-08-18T04:34:00.017Z,28.83
2022-08-18T04:36:27.599Z,39.03
2022-08-18T04:38:56.381Z,36.40
2022-08-18T04:41:26.293Z,32.45
2022-08-18T04:44:01.110Z,31.10
2022-08-18T04:46:28.255Z,35.25
2022-08-18T04:48:59.314Z,33.58
2022-08-18T04:52:37.357Z,36.33
2022-08-18T04:54:16.169Z,34.65
2022-08-18T04:56:43.582Z,33.75
2022-08-18T04:59:13.092Z,33.47
2022-08-18T05:01:42.179Z,29.27
2022-08-18T05:04:09.966Z,32.58
2022-08-18T05:06:37.320Z,27.88
2022-08-18T05:09:07.455Z,29.40
2022-08-18T05:11:34.852Z,33.80
2022-08-18T05:14:03.586Z,32.80
2022-08-18T05:16:32.763Z,30.85
2022-08-18T05:19:04.477Z,30.00
2022-08-18T05:21:37.300Z,29.45
2022-08-18T05:24:05.697Z,29.15
2022-08-18T05:26:32.270Z,31.92
2022-08-18T05:29:04.261Z,26.55
2022-08-18T05:31:46.209Z,32.78
2022-08-18T05:34:12.836Z,31.05
2022-08-18T05:36:48.453Z,31.77
2022-08-18T05:39:18.029Z,33.15
2022-08-18T05:41:53.973Z,26.73
2022-08-18T05:44:26.237Z,29.55
2022-08-18T05:46:55.276Z,31.38
2022-08-18T05:49:22.801Z,29.17
2022-08-18T05:51:52.731Z,26.77
2022-08-18T05:54:39.963Z,31.38
2022-08-18T05:57:15.448Z,33.45
2022-08-18T05:59:44.156Z,30.13
2022-08-18T06:02:21.369Z,28.10
2022-08-18T06:04:52.618Z,30.77
2022-08-18T06:10:15.427Z,25.67
2022-08-18T06:12:57.048Z,25.85
2022-08-18T06:15:47.720Z,23.08
2022-08-18T06:18:18.649Z,38.53
2022-08-18T06:21:18.047Z,53.53
2022-08-18T06:24:07.029Z,31.17
2022-08-18T06:26:42.488Z,26.85
2022-08-18T06:29:29.890Z,29.27
2022-08-18T06:32:28.313Z,31.08
2022-08-18T06:35:18.461Z,33.13
2022-08-18T06:38:37.925Z,42.22
2022-08-18T06:41:40.960Z,52.83
2022-08-18T06:44:48.835Z,63.30
2022-08-18T06:47:45.032Z,67.90
2022-08-18T06:50:18.349Z,54.30
2022-08-18T06:52:54.177Z,62.45
2022-08-18T06:55:38.889Z,68.05
2022-08-18T06:58:30.260Z,58.03
2022-08-18T07:03:34.615Z,61.20
2022-08-18T07:06:28.484Z,59.88
2022-08-18T07:09:00.410Z,56.38
2022-08-18T07:11:34.431Z,59.78
2022-08-18T07:14:22.242Z,50.25
2022-08-18T07:16:58.748Z,57.58
2022-08-18T07:19:29.629Z,50.90
2022-08-18T07:22:09.321Z,51.38
2022-08-18T07:24:47.501Z,51.65
2022-08-18T07:27:19.754Z,50.35
2022-08-18T07:30:06.677Z,56.20
2022-08-18T07:32:39.739Z,60.20
2022-08-18T07:35:07.768Z,53.90
2022-08-18T07:37:50.404Z,50.70
2022-08-18T07:40:22.583Z,55.33
2022-08-18T07:43:07.772Z,56.33
2022-08-18T07:45:37.780Z,50.85
2022-08-18T07:48:37.040Z,56.13
2022-08-18T07:51:17.359Z,56.50
2022-08-18T07:53:56.894Z,57.15
2022-08-18T07:56:28.258Z,51.15
2022-08-18T08:01:38.470Z,56.58
2022-08-18T08:04:11.171Z,54.50
2022-08-18T08:07:24.756Z,58.17
2022-08-18T08:09:53.819Z,51.28
2022-08-18T08:13:09.233Z,47.67
2022-08-18T08:15:45.648Z,47.00
2022-08-18T08:18:44.354Z,46.60
2022-08-18T08:21:15.447Z,49.00
2022-08-18T08:23:50.718Z,43.95
2022-08-18T08:27:02.391Z,54.17
2022-08-18T08:32:16.233Z,51.33
2022-08-18T08:34:57.110Z,52.28
2022-08-18T08:37:29.485Z,48.33
2022-08-18T08:40:04.310Z,47.40
2022-08-18T08:42:42.138Z,46.78
2022-08-18T08:45:14.600Z,49.35
2022-08-18T08:48:08.953Z,57.30
2022-08-18T08:50:42.552Z,52.75
2022-08-18T08:53:16.841Z,51.75
2022-08-18T08:55:51.095Z,50.97
2022-08-18T08:58:29.871Z,55.92
2022-08-18T09:00:57.787Z,51.05
2022-08-18T09:03:45.440Z,48.47
2022-08-18T09:06:31.155Z,50.63
2022-08-18T09:09:21.035Z,51.42
2022-08-18T09:12:10.858Z,39.45
2022-08-18T09:14:51.808Z,44.83
2022-08-18T09:17:33.935Z,46.15
2022-08-18T09:20:10.004Z,45.28
2022-08-18T09:23:18.192Z,48.83
2022-08-18T09:25:54.038Z,40.45
2022-08-18T09:28:24.747Z,44.88
2022-08-18T09:31:08.679Z,41.97
2022-08-18T09:33:40.514Z,36.97
2022-08-18T09:36:26.172Z,41.35
2022-08-18T09:39:54.442Z,37.70
2022-08-18T09:42:59.283Z,36.22
2022-08-18T09:45:33.609Z,37.10
2022-08-18T09:48:08.746Z,32.15
2022-08-18T09:50:52.750Z,30.83
2022-08-18T09:53:37.182Z,31.00
2022-08-18T09:56:05.650Z,35.85
2022-08-18T09:58:53.201Z,34.15
2022-08-18T10:01:36.609Z,38.38
2022-08-18T10:04:33.740Z,40.78
2022-08-18T10:07:23.584Z,36.55
2022-08-18T10:11:01.371Z,37.25
2022-08-18T10:13:21.647Z,41.17
2022-08-18T10:16:10.837Z,35.90
2022-08-18T10:19:09.075Z,37.53
2022-08-18T10:22:00.723Z,33.38
2022-08-18T10:24:35.958Z,34.17
2022-08-18T10:27:38.948Z,31.13
2022-08-18T10:30:06.201Z,31.80
2022-08-18T10:32:44.388Z,38.88
2022-08-18T10:35:38.445Z,33.72
2022-08-18T10:38:19.273Z,36.65
2022-08-18T10:40:58.606Z,33.75
2022-08-18T10:43:55.258Z,34.92
2022-08-18T10:46:35.022Z,31.98
2022-08-18T10:49:25.790Z,30.40
2022-08-18T10:52:10.863Z,36.83
2022-08-18T10:54:54.312Z,34.50
2022-08-18T10:57:42.886Z,32.60
2022-08-18T11:00:19.409Z,26.00
2022-08-18T11:03:39.926Z,26.40
2022-08-18T11:06:14.559Z,23.23
2022-08-18T11:08:54.768Z,26.92
2022-08-18T11:11:53.584Z,26.27
2022-08-18T11:14:51.402Z,32.22
2022-08-18T11:17:35.596Z,30.70
2022-08-18T11:20:07.994Z,29.13
2022-08-18T11:22:36.003Z,28.70
2022-08-18T11:25:05.366Z,29.05
2022-08-18T11:27:46.690Z,35.33
2022-08-18T11:30:15.544Z,33.78
2022-08-18T11:32:51.512Z,32.80
2022-08-18T11:35:32.035Z,27.73
2022-08-18T11:38:01.167Z,34.30
2022-08-18T11:43:38.943Z,28.33
2022-08-18T11:46:35.201Z,29.58
2022-08-18T11:49:26.159Z,30.10
2022-08-18T11:52:03.445Z,32.75
2022-08-18T11:54:38.415Z,31.48
2022-08-18T11:57:27.504Z,31.00
2022-08-18T12:00:00.469Z,30.55
2022-08-18T12:02:27.877Z,29.17
2022-08-18T12:04:57.866Z,27.17
2022-08-18T12:07:34.326Z,27.80
2022-08-18T12:10:18.073Z,28.67
2022-08-18T12:12:53.407Z,25.15
2022-08-18T12:15:24.589Z,24.08
2022-08-18T12:17:52.975Z,24.25
2022-08-18T12:20:19.815Z,26.08
2022-08-18T12:22:46.896Z,27.88
2022-08-18T12:25:16.329Z,32.50
2022-08-18T12:27:51.624Z,30.08
2022-08-18T12:30:19.106Z,26.10
2022-08-18T12:32:49.347Z,34.83
2022-08-18T12:35:21.721Z,27.20
2022-08-18T12:38:12.544Z,26.80
2022-08-18T12:40:35.671Z,26.33
2022-08-18T12:43:02.297Z,26.52
2022-08-18T12:45:31.136Z,29.15
2022-08-18T12:48:02.487Z,27.08
2022-08-18T12:50:36.139Z,24.98
2022-08-18T12:53:04.890Z,23.35
2022-08-18T12:55:37.623Z,22.52
2022-08-18T12:58:10.231Z,22.88
2022-08-18T13:00:37.445Z,28.65
2022-08-18T13:03:04.086Z,28.30
2022-08-18T13:05:30.691Z,28.17
2022-08-18T13:08:04.190Z,27.90
2022-08-18T13:10:42.936Z,27.00
2022-08-18T13:13:19.576Z,24.08
2022-08-18T13:15:55.686Z,24.88
2022-08-18T13:18:28.838Z,23.40
2022-08-18T13:21:00.212Z,20.25
2022-08-18T13:25:59.388Z,19.77
2022-08-18T13:28:30.799Z,24.02
2022-08-18T13:31:00.812Z,24.63
2022-08-18T13:33:34.965Z,22.88
2022-08-18T13:36:15.014Z,21.38
2022-08-18T13:38:43.557Z,19.83
2022-08-18T13:41:15.946Z,22.77
2022-08-18T13:43:44.667Z,20.58
2022-08-18T13:46:18.608Z,17.48
2022-08-18T13:48:50.800Z,22.73
2022-08-18T13:51:22.861Z,18.23
2022-08-18T13:53:59.322Z,23.35
2022-08-18T13:56:36.188Z,20.40
2022-08-18T13:59:06.526Z,21.38
2022-08-18T14:01:44.944Z,25.55
2022-08-18T14:04:20.421Z,21.25
2022-08-18T14:06:51.321Z,22.48
2022-08-18T14:09:36.347Z,20.70
2022-08-18T14:14:52.096Z,19.67
2022-08-18T14:17:20.431Z,22.90
2022-08-18T14:20:10.742Z,20.45
2022-08-18T14:23:00.803Z,25.38
2022-08-18T14:25:45.900Z,21.30
2022-08-18T14:28:12.805Z,20.52
2022-08-18T14:30:40.093Z,20.15
2022-08-18T14:33:11.767Z,23.48
2022-08-18T14:36:06.568Z,20.40
2022-08-18T14:38:25.184Z,15.38
2022-08-18T14:40:52.001Z,18.98
2022-08-18T14:43:24.975Z,19.52
2022-08-18T14:45:53.728Z,19.70
2022-08-18T14:48:26.885Z,21.90
2022-08-18T14:50:55.622Z,19.35
2022-08-18T14:53:25.527Z,24.20
2022-08-18T14:55:53.132Z,21.50
2022-08-18T14:58:21.259Z,22.23
2022-08-18T15:00:53.704Z,22.75
2022-08-18T15:03:22.231Z,21.95
2022-08-18T15:05:58.061Z,26.58
2022-08-18T15:08:26.270Z,21.90
2022-08-18T15:10:53.858Z,18.90
2022-08-18T15:13:20.618Z,21.33
2022-08-18T15:15:52.184Z,21.95
2022-08-18T15:18:22.733Z,23.45
2022-08-18T15:21:10.511Z,21.88
2022-08-18T15:24:04.847Z,19.25
2022-08-18T15:26:42.459Z,20.27
2022-08-18T15:29:10.908Z,20.05
2022-08-18T15:32:02.241Z,17.13
2022-08-18T15:34:28.704Z,24.05
2022-08-18T15:36:57.021Z,20.85
2022-08-18T15:39:24.213Z,19.25
2022-08-18T15:44:22.618Z,21.02
2022-08-18T15:46:53.011Z,22.40
2022-08-18T15:49:21.815Z,25.83
2022-08-18T15:51:49.910Z,29.95
2022-08-18T15:54:16.536Z,28.92
2022-08-18T15:56:46.426Z,27.80
2022-08-18T15:59:27.033Z,25.75
2022-08-18T16:02:01.514Z,26.58
2022-08-18T16:04:28.123Z,30.52
2022-08-18T16:06:56.220Z,31.17
2022-08-18T16:09:22.832Z,35.85
2022-08-18T16:11:50.023Z,30.58
2022-08-18T16:14:16.964Z,31.00
2022-08-18T16:16:43.760Z,33.08
2022-08-18T16:19:10.300Z,31.00
2022-08-18T16:21:40.076Z,33.10
2022-08-18T16:24:07.623Z,31.77
2022-08-18T16:26:35.598Z,27.00
2022-08-18T16:29:02.273Z,32.53
2022-08-18T16:31:29.418Z,29.27
2022-08-18T16:33:57.894Z,25.90
2022-08-18T16:36:27.855Z,29.38
2022-08-18T16:38:58.133Z,27.58
2022-08-18T16:41:25.946Z,26.17
2022-08-18T16:43:52.645Z,31.77
2022-08-18T16:46:24.543Z,30.65
2022-08-18T16:48:51.557Z,28.45
2022-08-18T16:51:21.726Z,32.08
2022-08-18T16:53:52.129Z,32.73
2022-08-18T16:56:21.092Z,24.73
2022-08-18T16:59:07.976Z,30.58
2022-08-18T17:01:54.428Z,26.05
2022-08-18T17:04:24.213Z,36.17
2022-08-18T17:06:51.219Z,29.48
2022-08-18T17:09:19.383Z,29.10
2022-08-18T17:11:51.209Z,41.33
2022-08-18T17:14:19.856Z,32.30
2022-08-18T17:16:47.449Z,34.38
2022-08-18T17:19:14.415Z,36.80
2022-08-18T17:21:41.165Z,38.30
2022-08-18T17:24:09.482Z,29.35
2022-08-18T17:27:25.790Z,30.23
2022-08-18T17:29:52.997Z,30.17
2022-08-18T17:32:31.599Z,33.42
2022-08-18T17:35:05.004Z,36.13
2022-08-18T17:37:31.839Z,27.20
2022-08-18T17:40:07.277Z,28.70
2022-08-18T17:42:37.310Z,32.72
2022-08-18T17:45:10.481Z,26.08
2022-08-18T17:48:03.429Z,25.23
2022-08-18T17:50:58.769Z,32.42
2022-08-18T17:53:26.145Z,29.70
2022-08-18T17:55:59.946Z,25.02
2022-08-18T17:58:29.586Z,26.08
2022-08-18T18:00:56.194Z,27.50
2022-08-18T18:03:23.024Z,24.65
2022-08-18T18:05:52.081Z,23.38
2022-08-18T18:08:18.839Z,25.55
2022-08-18T18:11:05.463Z,22.13
2022-08-18T18:13:33.420Z,25.45
2022-08-18T18:16:03.307Z,28.67
2022-08-18T18:18:41.277Z,26.35
2022-08-18T18:21:21.620Z,24.60
2022-08-18T18:24:11.695Z,21.67
2022-08-18T18:26:41.965Z,24.38
2022-08-18T18:29:31.538Z,27.33
2022-08-18T18:32:29.262Z,21.63
2022-08-18T18:35:12.934Z,25.88
2022-08-18T18:37:47.676Z,27.13
2022-08-18T18:40:39.676Z,24.70
2022-08-18T18:43:20.539Z,22.17
2022-08-18T18:46:18.341Z,24.95
2022-08-18T18:49:23.122Z,27.75
2022-08-18T18:52:11.370Z,22.75
2022-08-18T18:55:13.795Z,25.30
2022-08-18T18:58:08.517Z,27.88
2022-08-18T19:00:53.599Z,28.95
2022-08-18T19:03:47.100Z,30.05
2022-08-18T19:06:52.364Z,29.63
2022-08-18T19:09:35.009Z,34.05
2022-08-18T19:12:07.186Z,27.75
2022-08-18T19:14:38.484Z,29.15
2022-08-18T19:17:05.408Z,30.33
2022-08-18T19:19:41.691Z,28.50
2022-08-18T19:22:19.911Z,31.00
2022-08-18T19:25:35.260Z,31.27
2022-08-18T19:28:12.740Z,28.63
2022-08-18T19:30:42.343Z,31.10
2022-08-18T19:33:11.773Z,31.50
2022-08-18T19:36:00.274Z,30.02
2022-08-18T19:38:37.147Z,32.58
2022-08-18T19:41:26.794Z,28.55
2022-08-18T19:44:29.183Z,26.35
2022-08-18T19:47:08.541Z,29.67
2022-08-18T19:49:47.078Z,30.60
2022-08-18T19:52:46.641Z,31.90
2022-08-18T19:55:43.394Z,25.52
2022-08-18T19:58:58.569Z,27.70
2022-08-18T20:01:39.740Z,31.02
2022-08-18T20:04:13.387Z,31.10
2022-08-18T20:06:49.942Z,25.08
2022-08-18T20:09:50.400Z,28.83
2022-08-18T20:13:01.758Z,26.55
2022-08-18T20:15:28.816Z,28.40
2022-08-18T20:17:58.561Z,27.50
2022-08-18T20:20:28.025Z,28.75
2022-08-18T20:22:57.364Z,33.17
2022-08-18T20:25:24.115Z,29.48
2022-08-18T20:27:53.421Z,27.13
2022-08-18T20:30:19.979Z,31.88
2022-08-18T20:33:07.895Z,30.13
2022-08-18T20:35:41.694Z,30.55
2022-08-18T20:38:34.857Z,28.17
2022-08-18T20:42:01.133Z,28.88
2022-08-18T20:44:49.638Z,28.88
2022-08-18T20:47:31.267Z,34.70
2022-08-18T20:50:03.922Z,34.97
2022-08-18T20:52:41.369Z,32.95
2022-08-18T20:55:41.687Z,38.45
2022-08-18T20:58:14.762Z,32.90
2022-08-18T21:00:44.720Z,30.60
2022-08-18T21:03:15.182Z,31.15
2022-08-18T21:05:43.763Z,32.50
2022-08-18T21:08:14.202Z,33.35
2022-08-18T21:10:55.994Z,27.60
2022-08-18T21:13:32.223Z,33.60
2022-08-18T21:15:59.766Z,33.75
2022-08-18T21:18:27.417Z,31.77
2022-08-18T21:20:57.155Z,28.15
2022-08-18T21:23:29.695Z,32.58
2022-08-18T21:26:09.187Z,33.10
2022-08-18T21:28:38.842Z,29.23
2022-08-18T21:31:43.108Z,32.05
2022-08-18T21:33:59.358Z,32.28
2022-08-18T21:36:31.522Z,28.90
2022-08-18T21:39:08.808Z,31.75
2022-08-18T21:41:48.179Z,28.48
2022-08-18T21:44:19.653Z,32.60
2022-08-18T21:46:46.828Z,28.70
2022-08-18T21:49:23.655Z,26.08
2022-08-18T21:51:51.769Z,28.08
2022-08-18T21:54:24.023Z,26.30
2022-08-18T21:57:18.351Z,28.63
2022-08-18T22:00:24.215Z,29.80
2022-08-18T22:02:52.561Z,31.33
2022-08-18T22:05:31.027Z,31.15
2022-08-18T22:08:20.003Z,30.10
2022-08-18T22:12:02.124Z,28.27
2022-08-18T22:14:35.715Z,34.50
2022-08-18T22:17:32.678Z,34.03
2022-08-18T22:20:31.816Z,31.27
2022-08-18T22:23:43.768Z,31.95
2022-08-18T22:26:16.286Z,27.95
2022-08-18T22:28:50.356Z,28.00
2022-08-18T22:31:20.909Z,26.77
2022-08-18T22:33:48.008Z,34.42
2022-08-18T22:36:20.668Z,34.30
2022-08-18T22:38:48.305Z,31.63
2022-08-18T22:41:16.008Z,31.92
2022-08-18T22:43:42.576Z,29.67
2022-08-18T22:46:09.199Z,28.77
2022-08-18T22:48:35.887Z,33.03
2022-08-18T22:51:03.354Z,31.13
2022-08-18T22:53:29.991Z,35.53
2022-08-18T22:55:59.413Z,26.38
2022-08-18T22:58:32.430Z,25.65
2022-08-18T23:01:05.499Z,26.55
2022-08-18T23:03:35.083Z,25.88
2022-08-18T23:06:09.475Z,29.40
2022-08-18T23:08:54.436Z,30.27
2022-08-18T23:11:26.355Z,33.55
2022-08-18T23:13:54.012Z,30.52
2022-08-18T23:16:31.281Z,29.17
2022-08-18T23:19:02.012Z,28.67
2022-08-18T23:21:34.394Z,31.77
2022-08-18T23:24:07.116Z,31.15
2022-08-18T23:26:34.393Z,29.98
2022-08-18T23:29:01.252Z,31.90
2022-08-18T23:31:27.830Z,26.00
2022-08-18T23:33:54.406Z,31.88
2022-08-18T23:36:21.009Z,31.88
2022-08-18T23:38:47.940Z,31.10
2022-08-18T23:41:16.272Z,32.28
2022-08-18T23:43:42.876Z,32.33
2022-08-18T23:46:19.139Z,31.85
2022-08-18T23:48:49.871Z,36.25
2022-08-18T23:51:50.862Z,32.85
2022-08-18T23:54:20.003Z,32.08
2022-08-18T23:56:47.704Z,34.35
2022-08-18T23:59:15.326Z,28.33
